createdAt,value
2023-04-03T00:01:20.379Z,86.10
2023-04-03T00:03:47.772Z,85.80
2023-04-03T00:06:14.766Z,85.40
2023-04-03T00:08:42.116Z,86.20
2023-04-03T00:11:10.504Z,86.00
2023-04-03T00:13:38.738Z,85.60
2023-04-03T00:16:07.253Z,86.40
2023-04-03T00:18:34.189Z,86.30
2023-04-03T00:21:01.427Z,85.90
2023-04-03T00:23:28.317Z,86.20
2023-04-03T00:25:56.228Z,86.60
2023-04-03T00:28:23.411Z,86.60
2023-04-03T00:30:51.559Z,86.50
2023-04-03T00:33:18.793Z,86.50
2023-04-03T00:35:45.808Z,89.00
2023-04-03T00:38:12.848Z,86.90
2023-04-03T00:40:44.729Z,86.90
2023-04-03T00:43:21.243Z,86.60
2023-04-03T00:45:53.903Z,86.60
2023-04-03T00:48:34.511Z,87.00
2023-04-03T00:51:03.836Z,87.20
2023-04-03T00:53:40.546Z,88.30
2023-04-03T00:56:12.826Z,87.30
2023-04-03T00:58:53.155Z,88.30
2023-04-03T01:01:25.875Z,87.50
2023-04-03T01:03:52.962Z,87.70
2023-04-03T01:06:26.178Z,90.00
2023-04-03T01:08:53.901Z,87.90
2023-04-03T01:11:21.974Z,88.00
2023-04-03T01:13:50.336Z,87.80
2023-04-03T01:16:17.485Z,88.30
2023-04-03T01:18:46.480Z,88.90
2023-04-03T01:21:55.895Z,90.30
2023-04-03T01:24:34.262Z,89.40
2023-04-03T01:27:05.765Z,89.40
2023-04-03T01:29:33.089Z,89.70
2023-04-03T01:32:02.771Z,89.90
2023-04-03T01:34:30.936Z,90.10
2023-04-03T01:36:58.397Z,89.40
2023-04-03T01:39:25.600Z,89.80
2023-04-03T01:41:52.692Z,91.20
2023-04-03T01:44:19.694Z,89.30
2023-04-03T01:46:46.623Z,89.50
2023-04-03T01:49:13.610Z,89.50
2023-04-03T01:51:40.505Z,89.40
2023-04-03T01:54:07.438Z,90.70
2023-04-03T01:56:34.436Z,89.10
2023-04-03T01:59:01.324Z,89.30
2023-04-03T02:01:28.188Z,89.30
2023-04-03T02:03:55.663Z,91.00
2023-04-03T02:06:22.703Z,89.70
2023-04-03T02:08:49.655Z,90.80
2023-04-03T02:11:16.981Z,90.90
2023-04-03T02:13:43.884Z,89.40
2023-04-03T02:16:12.308Z,89.90
2023-04-03T02:18:40.289Z,89.40
2023-04-03T02:21:07.375Z,89.60
2023-04-03T02:23:37.029Z,90.80
2023-04-03T02:26:14.591Z,89.00
2023-04-03T02:28:42.202Z,89.10
2023-04-03T02:31:10.044Z,90.00
2023-04-03T02:33:37.734Z,90.00
2023-04-03T02:36:07.042Z,90.30
2023-04-03T02:38:34.472Z,90.30
2023-04-03T02:41:10.845Z,90.20
2023-04-03T02:43:39.128Z,90.30
2023-04-03T02:46:07.472Z,90.50
2023-04-03T02:48:34.710Z,90.50
2023-04-03T02:51:02.136Z,90.80
2023-04-03T02:53:29.276Z,90.90
2023-04-03T02:55:56.321Z,91.10
2023-04-03T02:58:23.269Z,92.50
2023-04-03T03:00:50.236Z,91.70
2023-04-03T03:03:17.275Z,91.10
2023-04-03T03:05:44.197Z,91.90
2023-04-03T03:08:11.236Z,91.70
2023-04-03T03:10:38.640Z,91.30
2023-04-03T03:13:05.927Z,90.00
2023-04-03T03:15:32.925Z,90.00
2023-04-03T03:17:59.881Z,90.20
2023-04-03T03:20:26.856Z,90.30
2023-04-03T03:22:53.721Z,90.40
2023-04-03T03:25:20.674Z,90.10
2023-04-03T03:27:47.655Z,90.00
2023-04-03T03:30:14.709Z,91.10
2023-04-03T03:32:41.652Z,90.40
2023-04-03T03:35:09.144Z,90.00
2023-04-03T03:37:36.122Z,90.20
2023-04-03T03:40:03.494Z,90.50
2023-04-03T03:42:30.594Z,90.70
2023-04-03T03:44:57.588Z,90.10
2023-04-03T03:47:24.689Z,90.50
2023-04-03T03:49:51.665Z,91.60
2023-04-03T03:52:18.628Z,90.60
2023-04-03T03:54:45.610Z,90.80
2023-04-03T03:57:12.614Z,90.40
2023-04-03T03:59:41.195Z,90.10
2023-04-03T04:02:08.546Z,89.50
2023-04-03T04:04:35.578Z,89.80
2023-04-03T04:07:02.645Z,89.70
2023-04-03T04:09:29.654Z,89.30
2023-04-03T04:11:56.894Z,88.90
2023-04-03T04:14:23.945Z,89.00
2023-04-03T04:16:51.603Z,89.40
2023-04-03T04:19:18.610Z,89.50
2023-04-03T04:21:45.483Z,89.50
2023-04-03T04:24:12.410Z,88.90
2023-04-03T04:26:39.481Z,88.00
2023-04-03T04:29:06.425Z,90.70
2023-04-03T04:31:33.462Z,90.50
2023-04-03T04:34:02.572Z,91.20
2023-04-03T04:36:29.663Z,91.20
2023-04-03T04:38:57.965Z,89.60
2023-04-03T04:41:25.060Z,89.30
2023-04-03T04:43:52.439Z,88.70
2023-04-03T04:46:19.721Z,88.50
2023-04-03T04:48:46.731Z,90.70
2023-04-03T04:51:13.703Z,89.30
2023-04-03T04:53:40.960Z,90.20
2023-04-03T04:56:08.098Z,87.70
2023-04-03T04:58:35.500Z,88.30
2023-04-03T05:01:04.702Z,88.30
2023-04-03T05:03:31.734Z,88.20
2023-04-03T05:05:59.017Z,87.70
2023-04-03T05:08:26.317Z,87.40
2023-04-03T05:10:55.974Z,87.20
2023-04-03T05:13:23.459Z,87.80
2023-04-03T05:15:50.610Z,90.50
2023-04-03T05:18:17.551Z,89.10
2023-04-03T05:20:44.464Z,86.80
2023-04-03T05:23:12.328Z,87.20
2023-04-03T05:25:40.097Z,89.00
2023-04-03T05:28:07.669Z,85.00
2023-04-03T05:30:35.932Z,85.10
2023-04-03T05:33:03.192Z,85.00
2023-04-03T05:35:30.130Z,87.10
2023-04-03T05:37:57.751Z,84.60
2023-04-03T05:40:24.895Z,84.00
2023-04-03T05:42:51.820Z,85.60
2023-04-03T05:45:18.855Z,83.50
2023-04-03T05:47:45.759Z,83.40
2023-04-03T05:50:13.011Z,82.80
2023-04-03T05:52:44.388Z,82.00
2023-04-03T05:55:11.477Z,83.70
2023-04-03T05:57:38.614Z,83.50
2023-04-03T06:00:10.657Z,83.30
2023-04-03T06:02:37.819Z,81.10
2023-04-03T06:05:05.360Z,81.60
2023-04-03T06:07:32.301Z,80.40
2023-04-03T06:09:59.436Z,80.80
2023-04-03T06:12:26.675Z,80.90
2023-04-03T06:14:53.593Z,81.10
2023-04-03T06:17:21.244Z,80.90
2023-04-03T06:19:48.328Z,80.90
2023-04-03T06:22:16.543Z,81.00
2023-04-03T06:24:44.699Z,80.20
2023-04-03T06:27:12.414Z,80.30
2023-04-03T06:29:39.425Z,83.10
2023-04-03T06:32:06.617Z,80.70
2023-04-03T06:34:33.572Z,79.80
2023-04-03T06:37:00.519Z,81.40
2023-04-03T06:39:28.279Z,78.70
2023-04-03T06:41:55.470Z,81.00
2023-04-03T06:44:22.420Z,79.00
2023-04-03T06:46:49.600Z,77.80
2023-04-03T06:49:16.633Z,77.60
2023-04-03T06:51:43.627Z,77.80
2023-04-03T06:54:10.590Z,76.90
2023-04-03T06:56:37.711Z,77.50
2023-04-03T06:59:04.736Z,77.00
2023-04-03T07:01:32.023Z,76.70
2023-04-03T07:03:59.247Z,76.70
2023-04-03T07:06:29.262Z,76.80
2023-04-03T07:08:56.793Z,76.30
2023-04-03T07:11:24.170Z,77.30
2023-04-03T07:13:51.985Z,77.20
2023-04-03T07:16:19.435Z,77.90
2023-04-03T07:18:47.457Z,78.20
2023-04-03T07:21:14.637Z,77.30
2023-04-03T07:23:41.691Z,77.70
2023-04-03T07:26:09.224Z,79.50
2023-04-03T07:28:37.507Z,78.60
2023-04-03T07:31:09.510Z,78.20
2023-04-03T07:33:38.079Z,77.00
2023-04-03T07:36:07.925Z,77.60
2023-04-03T07:38:37.018Z,77.00
2023-04-03T07:41:05.565Z,76.90
2023-04-03T07:43:32.528Z,75.80
2023-04-03T07:45:59.805Z,74.50
2023-04-03T07:48:27.598Z,75.50
2023-04-03T07:50:54.606Z,76.10
2023-04-03T07:53:21.722Z,78.70
2023-04-03T07:55:50.135Z,78.20
2023-04-03T07:58:20.014Z,74.90
2023-04-03T08:00:47.114Z,75.60
2023-04-03T08:03:15.497Z,75.20
2023-04-03T08:05:44.956Z,75.70
2023-04-03T08:08:14.880Z,72.90
2023-04-03T08:10:42.092Z,73.00
2023-04-03T08:13:10.355Z,75.00
2023-04-03T08:15:37.920Z,75.00
2023-04-03T08:18:05.505Z,74.40
2023-04-03T08:20:32.891Z,73.20
2023-04-03T08:22:59.851Z,75.30
2023-04-03T08:25:27.029Z,72.80
2023-04-03T08:27:53.906Z,72.60
2023-04-03T08:30:20.926Z,71.30
2023-04-03T08:32:48.218Z,71.80
2023-04-03T08:35:15.473Z,72.10
2023-04-03T08:37:42.771Z,72.40
2023-04-03T08:40:16.993Z,71.90
2023-04-03T08:43:21.295Z,71.70
2023-04-03T08:45:59.030Z,73.60
2023-04-03T08:48:34.816Z,70.90
2023-04-03T08:51:13.846Z,71.60
2023-04-03T08:53:49.903Z,70.80
2023-04-03T08:56:19.107Z,71.90
2023-04-03T08:59:06.653Z,71.50
2023-04-03T09:01:40.925Z,67.30
2023-04-03T09:04:15.542Z,69.30
2023-04-03T09:06:50.638Z,69.10
2023-04-03T09:09:33.369Z,69.40
2023-04-03T09:12:54.115Z,70.40
2023-04-03T09:15:37.927Z,67.40
2023-04-03T09:18:27.471Z,68.70
2023-04-03T09:21:11.615Z,67.00
2023-04-03T09:24:00.117Z,68.20
2023-04-03T09:26:35.579Z,66.90
2023-04-03T09:29:09.417Z,67.90
2023-04-03T09:31:43.753Z,68.30
2023-04-03T09:34:33.556Z,68.70
2023-04-03T09:37:06.866Z,67.60
2023-04-03T09:39:52.332Z,65.90
2023-04-03T09:42:25.857Z,68.00
2023-04-03T09:45:00.317Z,67.90
2023-04-03T09:47:31.115Z,66.30
2023-04-03T09:50:21.980Z,67.60
2023-04-03T09:52:52.812Z,67.10
2023-04-03T09:55:30.436Z,64.40
2023-04-03T09:58:03.866Z,65.30
2023-04-03T10:00:40.038Z,62.90
2023-04-03T10:03:29.755Z,63.60
2023-04-03T10:05:58.688Z,62.70
2023-04-03T10:08:34.626Z,63.90
2023-04-03T10:11:14.758Z,65.30
2023-04-03T10:13:54.378Z,63.40
2023-04-03T10:16:38.855Z,60.00
2023-04-03T10:19:33.767Z,58.00
2023-04-03T10:22:13.450Z,59.10
2023-04-03T10:25:04.406Z,60.30
2023-04-03T10:27:50.970Z,59.20
2023-04-03T10:30:38.945Z,55.80
2023-04-03T10:33:44.328Z,55.40
2023-04-03T10:36:35.475Z,58.60
2023-04-03T10:39:14.119Z,55.70
2023-04-03T10:42:21.179Z,56.60
2023-04-03T10:45:16.174Z,54.80
2023-04-03T10:47:55.732Z,54.80
2023-04-03T10:50:47.785Z,52.80
2023-04-03T10:53:18.164Z,53.20
2023-04-03T10:56:00.191Z,53.50
2023-04-03T10:58:41.827Z,55.30
2023-04-03T11:01:22.796Z,51.70
2023-04-03T11:04:02.107Z,52.00
2023-04-03T11:06:39.171Z,52.60
2023-04-03T11:09:30.510Z,52.70
2023-04-03T11:12:06.695Z,51.60
2023-04-03T11:14:37.417Z,51.80
2023-04-03T11:17:22.376Z,51.10
2023-04-03T11:20:21.988Z,50.90
2023-04-03T11:22:59.598Z,50.00
2023-04-03T11:25:27.130Z,49.10
2023-04-03T11:28:04.738Z,50.40
2023-04-03T11:30:49.576Z,47.70
2023-04-03T11:33:22.794Z,46.90
2023-04-03T11:35:56.345Z,47.70
2023-04-03T11:38:31.710Z,48.10
2023-04-03T11:40:59.863Z,47.60
2023-04-03T11:43:31.489Z,49.40
2023-04-03T11:46:07.355Z,49.00
2023-04-03T11:48:37.121Z,47.90
2023-04-03T11:51:39.849Z,49.30
2023-04-03T11:54:46.720Z,47.90
2023-04-03T11:58:15.188Z,46.40
2023-04-03T12:00:47.569Z,47.20
2023-04-03T12:03:26.951Z,48.00
2023-04-03T12:05:55.119Z,48.00
2023-04-03T12:08:31.564Z,46.90
2023-04-03T12:11:13.444Z,49.10
2023-04-03T12:13:58.326Z,50.10
2023-04-03T12:16:40.448Z,49.40
2023-04-03T12:19:20.706Z,48.50
2023-04-03T12:21:49.314Z,49.20
2023-04-03T12:24:22.094Z,48.70
2023-04-03T12:27:01.050Z,47.20
2023-04-03T12:29:37.865Z,46.70
2023-04-03T12:32:43.109Z,46.90
2023-04-03T12:35:45.524Z,46.70
2023-04-03T12:38:43.068Z,45.50
2023-04-03T12:41:28.108Z,45.10
2023-04-03T12:44:19.704Z,44.70
2023-04-03T12:46:52.997Z,43.70
2023-04-03T12:49:39.824Z,43.30
2023-04-03T12:52:43.297Z,41.90
2023-04-03T12:55:21.420Z,43.10
2023-04-03T12:57:48.939Z,44.10
2023-04-03T13:00:36.640Z,43.90
2023-04-03T13:03:06.103Z,44.90
2023-04-03T13:05:36.648Z,44.10
2023-04-03T13:08:13.679Z,43.90
2023-04-03T13:11:10.766Z,41.60
2023-04-03T13:13:38.815Z,41.10
2023-04-03T13:16:12.043Z,41.50
2023-04-03T13:18:39.586Z,41.20
2023-04-03T13:21:24.547Z,42.10
2023-04-03T13:24:13.783Z,42.80
2023-04-03T13:26:43.258Z,45.70
2023-04-03T13:29:31.317Z,43.90
2023-04-03T13:32:01.038Z,44.80
2023-04-03T13:34:47.090Z,46.00
2023-04-03T13:37:30.992Z,45.50
2023-04-03T13:40:13.255Z,46.30
2023-04-03T13:42:42.369Z,46.00
2023-04-03T13:45:31.053Z,47.70
2023-04-03T13:48:23.932Z,46.30
2023-04-03T13:51:03.426Z,46.30
2023-04-03T13:53:33.652Z,46.50
2023-04-03T13:56:15.088Z,47.60
2023-04-03T13:59:01.408Z,48.00
2023-04-03T14:01:51.773Z,49.40
2023-04-03T14:04:22.499Z,47.90
2023-04-03T14:06:50.861Z,48.50
2023-04-03T14:09:20.302Z,47.70
2023-04-03T14:11:50.201Z,49.30
2023-04-03T14:14:21.666Z,48.00
2023-04-03T14:16:56.609Z,50.00
2023-04-03T14:19:31.469Z,49.60
2023-04-03T14:21:59.753Z,48.70
2023-04-03T14:24:28.330Z,49.00
2023-04-03T14:26:56.567Z,50.50
2023-04-03T14:29:24.226Z,49.20
2023-04-03T14:32:00.362Z,49.70
2023-04-03T14:34:31.508Z,49.10
2023-04-03T14:36:58.519Z,50.20
2023-04-03T14:39:25.842Z,50.90
2023-04-03T14:41:52.771Z,50.90
2023-04-03T14:44:19.785Z,51.80
2023-04-03T14:46:56.309Z,50.00
2023-04-03T14:49:29.928Z,48.00
2023-04-03T14:51:59.157Z,48.40
2023-04-03T14:54:28.449Z,46.20
2023-04-03T14:56:58.658Z,45.00
2023-04-03T14:59:33.736Z,45.60
2023-04-03T15:02:00.795Z,44.30
2023-04-03T15:04:28.966Z,42.10
2023-04-03T15:06:56.184Z,42.30
2023-04-03T15:09:27.464Z,41.00
2023-04-03T15:11:56.083Z,39.00
2023-04-03T15:14:35.374Z,39.50
2023-04-03T15:17:06.533Z,39.20
2023-04-03T15:19:39.034Z,40.90
2023-04-03T15:22:06.592Z,41.20
2023-04-03T15:24:33.720Z,39.70
2023-04-03T15:27:02.048Z,39.30
2023-04-03T15:29:29.043Z,40.00
2023-04-03T15:31:56.740Z,39.10
2023-04-03T15:34:23.752Z,38.20
2023-04-03T15:36:53.773Z,39.20
2023-04-03T15:39:21.855Z,42.10
2023-04-03T15:41:49.143Z,42.10
2023-04-03T15:44:18.795Z,41.70
2023-04-03T15:46:52.138Z,40.30
2023-04-03T15:49:21.967Z,38.60
2023-04-03T15:51:49.098Z,38.20
2023-04-03T15:54:16.953Z,37.30
2023-04-03T15:56:43.888Z,36.50
2023-04-03T15:59:11.022Z,36.40
2023-04-03T16:01:40.074Z,35.50
2023-04-03T16:04:09.468Z,37.00
2023-04-03T16:06:37.084Z,35.70
2023-04-03T16:09:04.989Z,37.00
2023-04-03T16:11:32.201Z,36.90
2023-04-03T16:13:59.104Z,38.20
2023-04-03T16:16:28.296Z,37.80
2023-04-03T16:18:56.688Z,36.50
2023-04-03T16:21:24.405Z,35.60
2023-04-03T16:23:51.515Z,36.30
2023-04-03T16:26:18.675Z,37.20
2023-04-03T16:28:46.026Z,39.60
2023-04-03T16:31:13.203Z,39.40
2023-04-03T16:33:40.568Z,41.60
2023-04-03T16:36:08.216Z,42.00
2023-04-03T16:38:35.307Z,43.00
2023-04-03T16:41:05.417Z,44.20
2023-04-03T16:43:33.419Z,43.90
2023-04-03T16:46:03.005Z,46.40
2023-04-03T16:48:31.547Z,45.10
2023-04-03T16:50:58.667Z,45.60
2023-04-03T16:53:27.866Z,45.70
2023-04-03T16:55:55.755Z,46.20
2023-04-03T16:58:23.986Z,45.90
2023-04-03T17:00:52.071Z,45.20
2023-04-03T17:03:19.052Z,45.30
2023-04-03T17:05:48.907Z,46.80
2023-04-03T17:08:18.232Z,45.40
2023-04-03T17:10:45.246Z,46.60
2023-04-03T17:13:12.204Z,47.00
2023-04-03T17:15:39.490Z,44.80
2023-04-03T17:18:07.831Z,45.90
2023-04-03T17:20:37.045Z,46.80
2023-04-03T17:23:04.196Z,45.60
2023-04-03T17:25:31.219Z,48.10
2023-04-03T17:27:58.087Z,45.90
2023-04-03T17:30:24.981Z,45.80
2023-04-03T17:32:52.016Z,46.00
2023-04-03T17:35:18.924Z,46.40
2023-04-03T17:37:46.031Z,46.90
2023-04-03T17:40:14.980Z,46.70
2023-04-03T17:42:41.994Z,46.90
2023-04-03T17:45:09.808Z,46.60
2023-04-03T17:47:36.929Z,47.10
2023-04-03T17:50:04.330Z,47.20
2023-04-03T17:52:31.920Z,46.80
2023-04-03T17:54:58.834Z,47.90
2023-04-03T17:57:25.811Z,46.60
2023-04-03T17:59:54.027Z,49.80
2023-04-03T18:02:21.230Z,50.10
2023-04-03T18:04:48.160Z,49.30
2023-04-03T18:07:15.132Z,49.50
2023-04-03T18:09:42.538Z,48.00
2023-04-03T18:12:10.578Z,48.30
2023-04-03T18:14:38.722Z,48.10
2023-04-03T18:17:06.271Z,47.10
2023-04-03T18:19:34.201Z,47.10
2023-04-03T18:22:09.173Z,49.20
2023-04-03T18:24:36.328Z,47.40
2023-04-03T18:27:13.084Z,49.80
2023-04-03T18:29:42.912Z,48.40
2023-04-03T18:32:13.639Z,49.90
2023-04-03T18:34:40.812Z,48.20
2023-04-03T18:37:07.859Z,50.70
2023-04-03T18:39:35.015Z,53.00
2023-04-03T18:42:11.366Z,53.20
2023-04-03T18:44:39.613Z,49.60
2023-04-03T18:47:08.180Z,49.80
2023-04-03T18:49:38.331Z,51.80
2023-04-03T18:52:05.685Z,49.10
2023-04-03T18:54:33.049Z,48.30
2023-04-03T18:57:00.051Z,51.10
2023-04-03T18:59:27.465Z,51.10
2023-04-03T19:01:55.840Z,48.30
2023-04-03T19:04:23.818Z,48.20
2023-04-03T19:06:51.480Z,48.30
2023-04-03T19:09:18.528Z,48.00
2023-04-03T19:11:45.511Z,49.10
2023-04-03T19:14:16.646Z,49.20
2023-04-03T19:16:44.757Z,50.50
2023-04-03T19:19:12.237Z,52.20
2023-04-03T19:21:41.434Z,51.80
2023-04-03T19:24:13.185Z,51.80
2023-04-03T19:26:42.132Z,48.80
2023-04-03T19:29:09.549Z,48.60
2023-04-03T19:31:37.984Z,48.90
2023-04-03T19:34:06.738Z,51.20
2023-04-03T19:36:34.771Z,49.60
2023-04-03T19:39:02.394Z,52.10
2023-04-03T19:41:32.245Z,50.40
2023-04-03T19:43:59.307Z,50.60
2023-04-03T19:46:29.131Z,56.40
2023-04-03T19:48:56.621Z,51.20
2023-04-03T19:51:23.979Z,51.40
2023-04-03T19:53:52.007Z,54.50
2023-04-03T19:56:21.452Z,53.40
2023-04-03T19:58:53.755Z,54.30
2023-04-03T20:01:24.316Z,55.50
2023-04-03T20:03:51.820Z,54.60
2023-04-03T20:06:19.169Z,55.40
2023-04-03T20:08:46.438Z,57.60
2023-04-03T20:11:13.803Z,55.80
2023-04-03T20:13:40.925Z,53.20
2023-04-03T20:16:08.992Z,54.00
2023-04-03T20:18:36.940Z,53.80
2023-04-03T20:21:06.032Z,53.60
2023-04-03T20:23:34.013Z,53.70
2023-04-03T20:26:10.971Z,54.10
2023-04-03T20:28:42.929Z,54.40
2023-04-03T20:31:11.959Z,56.70
2023-04-03T20:33:39.055Z,57.20
2023-04-03T20:36:06.213Z,55.80
2023-04-03T20:38:33.230Z,55.00
2023-04-03T20:41:00.451Z,57.10
2023-04-03T20:43:28.360Z,57.90
2023-04-03T20:45:55.702Z,55.10
2023-04-03T20:48:22.700Z,54.90
2023-04-03T20:50:49.810Z,58.10
2023-04-03T20:53:18.940Z,55.40
2023-04-03T20:56:00.591Z,57.10
2023-04-03T20:58:33.355Z,55.60
2023-04-03T21:01:01.284Z,55.80
2023-04-03T21:03:30.665Z,55.70
2023-04-03T21:06:00.486Z,57.50
2023-04-03T21:09:23.957Z,55.50
2023-04-03T21:12:47.269Z,54.90
2023-04-03T21:15:49.016Z,54.80
2023-04-03T21:18:39.063Z,54.10
2023-04-03T21:21:06.260Z,55.10
2023-04-03T21:23:34.237Z,54.70
2023-04-03T21:26:01.942Z,55.80
2023-04-03T21:28:29.129Z,54.60
2023-04-03T21:30:56.302Z,54.50
2023-04-03T21:33:23.242Z,54.00
2023-04-03T21:35:57.667Z,54.40
2023-04-03T21:38:27.310Z,54.80
2023-04-03T21:40:58.152Z,55.90
2023-04-03T21:43:25.766Z,53.70
2023-04-03T21:46:01.919Z,56.10
2023-04-03T21:48:31.997Z,53.30
2023-04-03T21:51:03.794Z,56.60
2023-04-03T21:53:31.391Z,53.30
2023-04-03T21:56:00.307Z,54.30
2023-04-03T21:58:33.878Z,55.90
2023-04-03T22:01:14.912Z,57.60
2023-04-03T22:03:43.910Z,56.90
2023-04-03T22:06:13.666Z,54.20
2023-04-03T22:08:41.145Z,56.00
2023-04-03T22:11:12.841Z,54.10
2023-04-03T22:13:40.571Z,54.10
2023-04-03T22:16:09.153Z,56.10
2023-04-03T22:18:36.384Z,54.40
2023-04-03T22:21:03.929Z,54.40
2023-04-03T22:23:30.933Z,54.50
2023-04-03T22:26:04.016Z,55.00
2023-04-03T22:28:37.510Z,53.90
2023-04-03T22:31:08.090Z,54.30
2023-04-03T22:33:38.798Z,55.90
2023-04-03T22:36:07.468Z,54.50
2023-04-03T22:38:35.095Z,54.50
2023-04-03T22:41:04.278Z,54.50
2023-04-03T22:43:33.220Z,54.90
2023-04-03T22:46:01.732Z,54.90
2023-04-03T22:48:30.797Z,56.30
2023-04-03T22:50:57.898Z,55.50
2023-04-03T22:53:24.895Z,55.60
2023-04-03T22:56:00.353Z,55.90
2023-04-03T22:58:28.886Z,56.00
2023-04-03T23:01:04.731Z,56.30
2023-04-03T23:03:31.710Z,58.30
2023-04-03T23:05:58.788Z,56.20
2023-04-03T23:08:25.751Z,59.00
2023-04-03T23:10:57.269Z,56.70
2023-04-03T23:13:25.461Z,56.40
2023-04-03T23:16:00.622Z,57.70
2023-04-03T23:18:29.913Z,56.00
2023-04-03T23:20:58.746Z,57.70
2023-04-03T23:23:25.941Z,56.80
2023-04-03T23:25:53.779Z,56.90
2023-04-03T23:28:21.037Z,56.90
2023-04-03T23:30:48.428Z,59.70
2023-04-03T23:33:15.521Z,59.70
2023-04-03T23:35:46.435Z,59.80
2023-04-03T23:38:16.219Z,59.40
2023-04-03T23:40:44.171Z,57.60
2023-04-03T23:43:11.876Z,57.30
2023-04-03T23:45:39.606Z,57.70
2023-04-03T23:48:06.891Z,57.80
2023-04-03T23:50:33.880Z,58.30
2023-04-03T23:53:01.006Z,58.40
2023-04-03T23:55:27.969Z,59.00
2023-04-03T23:57:54.887Z,58.50
